sensor_id;sensor_type;location;lat;lon;timestamp;temperature;humidity
17423;DHT22;8829;47.932;7.810;2023-06-26T00:00:32;20.20;99.90
17423;DHT22;8829;47.932;7.810;2023-06-26T00:02:59;20.00;99.90
17423;DHT22;8829;47.932;7.810;2023-06-26T00:05:25;20.00;99.90
17423;DHT22;8829;47.932;7.810;2023-06-26T00:07:56;20.00;99.90
17423;DHT22;8829;47.932;7.810;2023-06-26T00:10:25;20.10;99.90
17423;DHT22;8829;47.932;7.810;2023-06-26T00:12:52;20.00;99.90
17423;DHT22;8829;47.932;7.810;2023-06-26T00:15:20;20.10;99.90
17423;DHT22;8829;47.932;7.810;2023-06-26T00:17:47;20.00;99.90
17423;DHT22;8829;47.932;7.810;2023-06-26T00:20:14;19.80;99.90
17423;DHT22;8829;47.932;7.810;2023-06-26T00:22:42;19.70;99.90
17423;DHT22;8829;47.932;7.810;2023-06-26T00:25:08;19.70;99.90
17423;DHT22;8829;47.932;7.810;2023-06-26T00:27:35;19.80;99.90
17423;DHT22;8829;47.932;7.810;2023-06-26T00:30:02;19.90;99.90
17423;DHT22;8829;47.932;7.810;2023-06-26T00:32:30;19.90;99.90
17423;DHT22;8829;47.932;7.810;2023-06-26T00:34:57;19.80;99.90
17423;DHT22;8829;47.932;7.810;2023-06-26T00:37:23;19.70;99.90
17423;DHT22;8829;47.932;7.810;2023-06-26T00:39:50;19.70;99.90
17423;DHT22;8829;47.932;7.810;2023-06-26T00:42:17;19.70;99.90
17423;DHT22;8829;47.932;7.810;2023-06-26T00:44:43;19.80;99.90
17423;DHT22;8829;47.932;7.810;2023-06-26T00:47:11;19.70;99.90
17423;DHT22;8829;47.932;7.810;2023-06-26T00:49:41;19.50;99.90
17423;DHT22;8829;47.932;7.810;2023-06-26T00:52:08;19.50;99.90
17423;DHT22;8829;47.932;7.810;2023-06-26T00:54:35;19.60;99.90
17423;DHT22;8829;47.932;7.810;2023-06-26T00:57:02;19.70;99.90
17423;DHT22;8829;47.932;7.810;2023-06-26T00:59:28;19.70;99.90
17423;DHT22;8829;47.932;7.810;2023-06-26T01:01:55;19.80;99.90
17423;DHT22;8829;47.932;7.810;2023-06-26T01:04:22;19.80;99.90
17423;DHT22;8829;47.932;7.810;2023-06-26T01:06:55;19.80;99.90
17423;DHT22;8829;47.932;7.810;2023-06-26T01:09:22;19.90;99.90
17423;DHT22;8829;47.932;7.810;2023-06-26T01:11:50;19.90;99.90
17423;DHT22;8829;47.932;7.810;2023-06-26T01:14:17;19.90;99.90
17423;DHT22;8829;47.932;7.810;2023-06-26T01:16:45;19.90;99.90
17423;DHT22;8829;47.932;7.810;2023-06-26T01:19:19;19.90;99.90
17423;DHT22;8829;47.932;7.810;2023-06-26T01:21:53;19.80;99.90
17423;DHT22;8829;47.932;7.810;2023-06-26T01:24:25;19.70;99.90
17423;DHT22;8829;47.932;7.810;2023-06-26T01:26:56;19.70;99.90
17423;DHT22;8829;47.932;7.810;2023-06-26T01:29:24;19.60;99.90
17423;DHT22;8829;47.932;7.810;2023-06-26T01:31:52;19.60;99.90
17423;DHT22;8829;47.932;7.810;2023-06-26T01:34:19;19.60;99.90
17423;DHT22;8829;47.932;7.810;2023-06-26T01:36:46;19.70;99.90
17423;DHT22;8829;47.932;7.810;2023-06-26T01:39:15;19.60;99.90
17423;DHT22;8829;47.932;7.810;2023-06-26T01:41:42;19.60;99.90
17423;DHT22;8829;47.932;7.810;2023-06-26T01:44:20;19.50;99.90
17423;DHT22;8829;47.932;7.810;2023-06-26T01:46:58;19.60;99.90
17423;DHT22;8829;47.932;7.810;2023-06-26T01:49:46;19.60;99.90
17423;DHT22;8829;47.932;7.810;2023-06-26T01:52:19;19.50;99.90
17423;DHT22;8829;47.932;7.810;2023-06-26T01:54:53;19.50;99.90
17423;DHT22;8829;47.932;7.810;2023-06-26T01:57:21;19.30;99.90
17423;DHT22;8829;47.932;7.810;2023-06-26T01:59:51;19.40;99.90
17423;DHT22;8829;47.932;7.810;2023-06-26T02:02:18;19.40;99.90
17423;DHT22;8829;47.932;7.810;2023-06-26T02:04:44;19.50;99.90
17423;DHT22;8829;47.932;7.810;2023-06-26T02:07:13;19.40;99.90
17423;DHT22;8829;47.932;7.810;2023-06-26T02:09:40;19.50;99.90
17423;DHT22;8829;47.932;7.810;2023-06-26T02:12:07;19.50;99.90
17423;DHT22;8829;47.932;7.810;2023-06-26T02:14:34;19.60;99.90
17423;DHT22;8829;47.932;7.810;2023-06-26T02:17:02;19.80;99.90
17423;DHT22;8829;47.932;7.810;2023-06-26T02:19:29;19.90;99.90
17423;DHT22;8829;47.932;7.810;2023-06-26T02:21:56;19.80;99.90
17423;DHT22;8829;47.932;7.810;2023-06-26T02:24:22;19.70;99.90
17423;DHT22;8829;47.932;7.810;2023-06-26T02:26:49;19.70;99.90
17423;DHT22;8829;47.932;7.810;2023-06-26T02:29:16;19.80;99.90
17423;DHT22;8829;47.932;7.810;2023-06-26T02:31:42;19.70;99.90
17423;DHT22;8829;47.932;7.810;2023-06-26T02:34:10;19.50;99.90
17423;DHT22;8829;47.932;7.810;2023-06-26T02:36:37;19.40;99.90
17423;DHT22;8829;47.932;7.810;2023-06-26T02:39:04;19.40;99.90
17423;DHT22;8829;47.932;7.810;2023-06-26T02:41:31;19.50;99.90
17423;DHT22;8829;47.932;7.810;2023-06-26T02:43:58;19.40;99.90
17423;DHT22;8829;47.932;7.810;2023-06-26T02:46:24;19.40;99.90
17423;DHT22;8829;47.932;7.810;2023-06-26T02:48:51;19.40;99.90
17423;DHT22;8829;47.932;7.810;2023-06-26T02:51:19;19.40;99.90
17423;DHT22;8829;47.932;7.810;2023-06-26T02:53:46;19.30;99.90
17423;DHT22;8829;47.932;7.810;2023-06-26T02:56:12;19.40;99.90
17423;DHT22;8829;47.932;7.810;2023-06-26T02:58:39;19.50;99.90
17423;DHT22;8829;47.932;7.810;2023-06-26T03:01:06;19.60;99.90
17423;DHT22;8829;47.932;7.810;2023-06-26T03:03:33;19.70;99.90
17423;DHT22;8829;47.932;7.810;2023-06-26T03:06:06;19.60;99.90
17423;DHT22;8829;47.932;7.810;2023-06-26T03:08:36;19.60;99.90
17423;DHT22;8829;47.932;7.810;2023-06-26T03:11:04;19.60;99.90
17423;DHT22;8829;47.932;7.810;2023-06-26T03:13:31;19.60;99.90
17423;DHT22;8829;47.932;7.810;2023-06-26T03:15:58;19.70;99.90
17423;DHT22;8829;47.932;7.810;2023-06-26T03:18:24;19.60;99.90
17423;DHT22;8829;47.932;7.810;2023-06-26T03:20:51;19.60;99.90
17423;DHT22;8829;47.932;7.810;2023-06-26T03:23:19;19.60;99.90
17423;DHT22;8829;47.932;7.810;2023-06-26T03:25:47;19.50;99.90
17423;DHT22;8829;47.932;7.810;2023-06-26T03:28:14;19.50;99.90
17423;DHT22;8829;47.932;7.810;2023-06-26T03:30:41;19.30;99.90
17423;DHT22;8829;47.932;7.810;2023-06-26T03:33:07;19.50;99.90
17423;DHT22;8829;47.932;7.810;2023-06-26T03:35:34;19.50;99.90
17423;DHT22;8829;47.932;7.810;2023-06-26T03:38:01;19.40;99.90
17423;DHT22;8829;47.932;7.810;2023-06-26T03:40:28;19.50;99.90
17423;DHT22;8829;47.932;7.810;2023-06-26T03:42:56;19.50;99.90
17423;DHT22;8829;47.932;7.810;2023-06-26T03:45:22;19.50;99.90
17423;DHT22;8829;47.932;7.810;2023-06-26T03:47:49;19.30;99.90
17423;DHT22;8829;47.932;7.810;2023-06-26T03:50:16;19.30;99.90
17423;DHT22;8829;47.932;7.810;2023-06-26T03:52:43;19.30;99.90
17423;DHT22;8829;47.932;7.810;2023-06-26T03:55:09;19.40;99.90
17423;DHT22;8829;47.932;7.810;2023-06-26T03:57:36;19.50;99.90
17423;DHT22;8829;47.932;7.810;2023-06-26T04:00:05;19.60;99.90
17423;DHT22;8829;47.932;7.810;2023-06-26T04:02:34;19.60;99.90
17423;DHT22;8829;47.932;7.810;2023-06-26T04:05:00;19.70;99.90
17423;DHT22;8829;47.932;7.810;2023-06-26T04:07:28;19.70;99.90
17423;DHT22;8829;47.932;7.810;2023-06-26T04:09:56;19.70;99.90
17423;DHT22;8829;47.932;7.810;2023-06-26T04:12:23;19.70;99.90
17423;DHT22;8829;47.932;7.810;2023-06-26T04:14:50;19.80;99.90
17423;DHT22;8829;47.932;7.810;2023-06-26T04:17:17;19.80;99.90
17423;DHT22;8829;47.932;7.810;2023-06-26T04:19:45;19.80;99.90
17423;DHT22;8829;47.932;7.810;2023-06-26T04:22:11;19.80;99.90
17423;DHT22;8829;47.932;7.810;2023-06-26T04:24:38;19.90;99.90
17423;DHT22;8829;47.932;7.810;2023-06-26T04:27:05;20.00;99.90
17423;DHT22;8829;47.932;7.810;2023-06-26T04:29:32;20.00;99.90
17423;DHT22;8829;47.932;7.810;2023-06-26T04:31:59;20.10;99.90
17423;DHT22;8829;47.932;7.810;2023-06-26T04:34:27;20.10;99.90
17423;DHT22;8829;47.932;7.810;2023-06-26T04:36:57;20.20;99.90
17423;DHT22;8829;47.932;7.810;2023-06-26T04:39:24;20.10;99.90
17423;DHT22;8829;47.932;7.810;2023-06-26T04:41:51;20.20;99.90
17423;DHT22;8829;47.932;7.810;2023-06-26T04:44:18;20.20;99.90
17423;DHT22;8829;47.932;7.810;2023-06-26T04:46:44;20.10;99.90
17423;DHT22;8829;47.932;7.810;2023-06-26T04:49:11;20.30;99.90
17423;DHT22;8829;47.932;7.810;2023-06-26T04:51:40;20.40;99.90
17423;DHT22;8829;47.932;7.810;2023-06-26T04:54:06;20.50;99.90
17423;DHT22;8829;47.932;7.810;2023-06-26T04:56:33;20.50;99.90
17423;DHT22;8829;47.932;7.810;2023-06-26T04:59:00;20.70;99.90
17423;DHT22;8829;47.932;7.810;2023-06-26T05:01:28;20.90;99.90
17423;DHT22;8829;47.932;7.810;2023-06-26T05:03:55;21.00;99.90
17423;DHT22;8829;47.932;7.810;2023-06-26T05:06:22;20.90;99.90
17423;DHT22;8829;47.932;7.810;2023-06-26T05:08:50;20.80;99.90
17423;DHT22;8829;47.932;7.810;2023-06-26T05:11:17;20.70;99.90
17423;DHT22;8829;47.932;7.810;2023-06-26T05:13:43;20.80;99.90
17423;DHT22;8829;47.932;7.810;2023-06-26T05:16:10;21.00;99.90
17423;DHT22;8829;47.932;7.810;2023-06-26T05:18:37;21.50;99.90
17423;DHT22;8829;47.932;7.810;2023-06-26T05:21:04;22.00;99.90
17423;DHT22;8829;47.932;7.810;2023-06-26T05:23:32;22.20;99.90
17423;DHT22;8829;47.932;7.810;2023-06-26T05:26:01;22.30;99.90
17423;DHT22;8829;47.932;7.810;2023-06-26T05:28:29;22.90;99.90
17423;DHT22;8829;47.932;7.810;2023-06-26T05:30:57;23.30;99.90
17423;DHT22;8829;47.932;7.810;2023-06-26T05:33:25;23.50;99.90
17423;DHT22;8829;47.932;7.810;2023-06-26T05:35:53;23.50;99.90
17423;DHT22;8829;47.932;7.810;2023-06-26T05:38:20;23.90;99.90
17423;DHT22;8829;47.932;7.810;2023-06-26T05:40:48;24.20;99.90
17423;DHT22;8829;47.932;7.810;2023-06-26T05:43:16;24.40;99.90
17423;DHT22;8829;47.932;7.810;2023-06-26T05:45:46;24.40;99.90
17423;DHT22;8829;47.932;7.810;2023-06-26T05:48:13;24.40;99.90
17423;DHT22;8829;47.932;7.810;2023-06-26T05:50:41;24.60;99.90
17423;DHT22;8829;47.932;7.810;2023-06-26T05:53:09;24.80;99.90
17423;DHT22;8829;47.932;7.810;2023-06-26T05:55:37;25.50;99.90
17423;DHT22;8829;47.932;7.810;2023-06-26T05:58:05;26.20;99.90
17423;DHT22;8829;47.932;7.810;2023-06-26T06:00:34;27.00;99.90
17423;DHT22;8829;47.932;7.810;2023-06-26T06:03:01;27.20;99.90
17423;DHT22;8829;47.932;7.810;2023-06-26T06:05:27;27.30;99.90
17423;DHT22;8829;47.932;7.810;2023-06-26T06:07:54;27.80;99.90
17423;DHT22;8829;47.932;7.810;2023-06-26T06:10:21;28.10;99.90
17423;DHT22;8829;47.932;7.810;2023-06-26T06:12:48;28.00;99.90
17423;DHT22;8829;47.932;7.810;2023-06-26T06:15:14;28.60;99.90
17423;DHT22;8829;47.932;7.810;2023-06-26T06:17:42;28.70;99.90
17423;DHT22;8829;47.932;7.810;2023-06-26T06:20:10;29.10;99.90
17423;DHT22;8829;47.932;7.810;2023-06-26T06:22:37;29.60;99.90
17423;DHT22;8829;47.932;7.810;2023-06-26T06:25:04;29.80;99.50
17423;DHT22;8829;47.932;7.810;2023-06-26T06:27:31;29.80;99.40
17423;DHT22;8829;47.932;7.810;2023-06-26T06:29:57;30.10;99.10
17423;DHT22;8829;47.932;7.810;2023-06-26T06:32:24;30.30;99.20
17423;DHT22;8829;47.932;7.810;2023-06-26T06:34:52;30.60;98.10
17423;DHT22;8829;47.932;7.810;2023-06-26T06:37:18;30.60;97.30
17423;DHT22;8829;47.932;7.810;2023-06-26T06:39:45;30.80;96.40
17423;DHT22;8829;47.932;7.810;2023-06-26T06:42:12;31.00;96.10
17423;DHT22;8829;47.932;7.810;2023-06-26T06:44:39;31.10;95.90
17423;DHT22;8829;47.932;7.810;2023-06-26T06:47:06;31.30;95.30
17423;DHT22;8829;47.932;7.810;2023-06-26T06:49:33;31.40;94.70
17423;DHT22;8829;47.932;7.810;2023-06-26T06:52:01;31.40;94.80
17423;DHT22;8829;47.932;7.810;2023-06-26T06:54:27;31.50;95.20
17423;DHT22;8829;47.932;7.810;2023-06-26T06:56:54;31.50;95.20
17423;DHT22;8829;47.932;7.810;2023-06-26T06:59:21;31.80;94.30
17423;DHT22;8829;47.932;7.810;2023-06-26T07:01:47;31.80;94.40
17423;DHT22;8829;47.932;7.810;2023-06-26T07:04:14;31.70;94.10
17423;DHT22;8829;47.932;7.810;2023-06-26T07:06:41;31.70;93.40
17423;DHT22;8829;47.932;7.810;2023-06-26T07:09:09;31.70;93.60
17423;DHT22;8829;47.932;7.810;2023-06-26T07:11:35;32.00;93.30
17423;DHT22;8829;47.932;7.810;2023-06-26T07:14:02;32.10;92.80
17423;DHT22;8829;47.932;7.810;2023-06-26T07:16:29;32.10;92.60
17423;DHT22;8829;47.932;7.810;2023-06-26T07:18:56;32.10;92.90
17423;DHT22;8829;47.932;7.810;2023-06-26T07:21:22;32.00;92.80
17423;DHT22;8829;47.932;7.810;2023-06-26T07:23:49;32.10;92.60
17423;DHT22;8829;47.932;7.810;2023-06-26T07:26:17;32.30;92.30
17423;DHT22;8829;47.932;7.810;2023-06-26T07:28:44;32.50;92.20
17423;DHT22;8829;47.932;7.810;2023-06-26T07:31:11;32.50;91.60
17423;DHT22;8829;47.932;7.810;2023-06-26T07:33:37;32.50;91.10
17423;DHT22;8829;47.932;7.810;2023-06-26T07:36:04;32.50;91.50
17423;DHT22;8829;47.932;7.810;2023-06-26T07:38:31;32.60;91.60
17423;DHT22;8829;47.932;7.810;2023-06-26T07:40:58;32.70;91.70
17423;DHT22;8829;47.932;7.810;2023-06-26T07:43:26;32.90;91.40
17423;DHT22;8829;47.932;7.810;2023-06-26T07:45:53;33.20;91.30
17423;DHT22;8829;47.932;7.810;2023-06-26T07:48:19;33.40;91.20
17423;DHT22;8829;47.932;7.810;2023-06-26T07:50:46;33.50;90.70
17423;DHT22;8829;47.932;7.810;2023-06-26T07:53:13;33.80;90.20
17423;DHT22;8829;47.932;7.810;2023-06-26T07:55:39;33.80;90.70
17423;DHT22;8829;47.932;7.810;2023-06-26T07:58:07;34.10;90.20
17423;DHT22;8829;47.932;7.810;2023-06-26T08:00:35;34.40;89.40
17423;DHT22;8829;47.932;7.810;2023-06-26T08:03:02;34.30;88.80
17423;DHT22;8829;47.932;7.810;2023-06-26T08:05:28;34.20;89.20
17423;DHT22;8829;47.932;7.810;2023-06-26T08:07:55;34.40;86.50
17423;DHT22;8829;47.932;7.810;2023-06-26T08:10:22;34.60;87.60
17423;DHT22;8829;47.932;7.810;2023-06-26T08:12:48;34.60;86.60
17423;DHT22;8829;47.932;7.810;2023-06-26T08:15:17;34.80;85.50
17423;DHT22;8829;47.932;7.810;2023-06-26T08:17:45;34.60;85.80
17423;DHT22;8829;47.932;7.810;2023-06-26T08:20:12;34.30;85.20
17423;DHT22;8829;47.932;7.810;2023-06-26T08:22:39;33.80;87.50
17423;DHT22;8829;47.932;7.810;2023-06-26T08:25:06;33.60;88.80
17423;DHT22;8829;47.932;7.810;2023-06-26T08:27:33;33.60;88.90
17423;DHT22;8829;47.932;7.810;2023-06-26T08:29:59;33.70;88.30
17423;DHT22;8829;47.932;7.810;2023-06-26T08:32:26;33.80;87.40
17423;DHT22;8829;47.932;7.810;2023-06-26T08:34:54;33.80;86.90
17423;DHT22;8829;47.932;7.810;2023-06-26T08:37:20;33.40;87.20
17423;DHT22;8829;47.932;7.810;2023-06-26T08:39:48;32.90;88.60
17423;DHT22;8829;47.932;7.810;2023-06-26T08:42:16;32.80;89.00
17423;DHT22;8829;47.932;7.810;2023-06-26T08:44:43;32.90;88.40
17423;DHT22;8829;47.932;7.810;2023-06-26T08:47:11;33.10;89.30
17423;DHT22;8829;47.932;7.810;2023-06-26T08:49:46;33.00;89.50
17423;DHT22;8829;47.932;7.810;2023-06-26T08:52:19;32.60;89.60
17423;DHT22;8829;47.932;7.810;2023-06-26T08:54:50;31.90;90.80
17423;DHT22;8829;47.932;7.810;2023-06-26T08:57:20;31.40;91.50
17423;DHT22;8829;47.932;7.810;2023-06-26T08:59:49;31.10;91.90
17423;DHT22;8829;47.932;7.810;2023-06-26T09:02:16;31.30;90.50
17423;DHT22;8829;47.932;7.810;2023-06-26T09:04:42;31.70;90.30
17423;DHT22;8829;47.932;7.810;2023-06-26T09:07:09;32.20;90.70
17423;DHT22;8829;47.932;7.810;2023-06-26T09:09:37;32.30;89.80
17423;DHT22;8829;47.932;7.810;2023-06-26T09:12:04;32.20;90.30
17423;DHT22;8829;47.932;7.810;2023-06-26T09:14:32;32.00;90.10
17423;DHT22;8829;47.932;7.810;2023-06-26T09:16:58;31.80;90.70
17423;DHT22;8829;47.932;7.810;2023-06-26T09:19:25;31.70;90.90
17423;DHT22;8829;47.932;7.810;2023-06-26T09:21:52;31.20;91.00
17423;DHT22;8829;47.932;7.810;2023-06-26T09:24:21;30.90;92.00
17423;DHT22;8829;47.932;7.810;2023-06-26T09:26:51;30.60;92.30
17423;DHT22;8829;47.932;7.810;2023-06-26T09:29:18;30.20;92.80
17423;DHT22;8829;47.932;7.810;2023-06-26T09:31:45;29.90;93.30
17423;DHT22;8829;47.932;7.810;2023-06-26T09:34:12;29.70;93.60
17423;DHT22;8829;47.932;7.810;2023-06-26T09:36:39;29.50;94.40
17423;DHT22;8829;47.932;7.810;2023-06-26T09:39:08;29.40;94.50
17423;DHT22;8829;47.932;7.810;2023-06-26T09:41:36;29.20;94.80
17423;DHT22;8829;47.932;7.810;2023-06-26T09:44:06;29.00;94.60
17423;DHT22;8829;47.932;7.810;2023-06-26T09:46:33;28.70;95.40
17423;DHT22;8829;47.932;7.810;2023-06-26T09:49:05;28.60;95.50
17423;DHT22;8829;47.932;7.810;2023-06-26T09:51:32;28.50;96.10
17423;DHT22;8829;47.932;7.810;2023-06-26T09:53:59;28.60;96.30
17423;DHT22;8829;47.932;7.810;2023-06-26T09:56:26;28.50;96.50
17423;DHT22;8829;47.932;7.810;2023-06-26T09:58:55;28.50;96.30
17423;DHT22;8829;47.932;7.810;2023-06-26T10:01:23;28.50;96.40
17423;DHT22;8829;47.932;7.810;2023-06-26T10:03:50;28.70;96.50
17423;DHT22;8829;47.932;7.810;2023-06-26T10:06:19;28.90;96.70
17423;DHT22;8829;47.932;7.810;2023-06-26T10:08:49;29.00;96.50
17423;DHT22;8829;47.932;7.810;2023-06-26T10:11:19;29.00;96.60
17423;DHT22;8829;47.932;7.810;2023-06-26T10:13:49;29.00;97.20
17423;DHT22;8829;47.932;7.810;2023-06-26T10:16:20;29.10;96.50
17423;DHT22;8829;47.932;7.810;2023-06-26T10:18:51;29.00;96.50
17423;DHT22;8829;47.932;7.810;2023-06-26T10:21:20;29.00;96.70
17423;DHT22;8829;47.932;7.810;2023-06-26T10:23:49;28.80;96.80
17423;DHT22;8829;47.932;7.810;2023-06-26T10:26:16;28.80;97.00
17423;DHT22;8829;47.932;7.810;2023-06-26T10:28:44;28.90;97.00
17423;DHT22;8829;47.932;7.810;2023-06-26T10:31:14;29.20;96.80
17423;DHT22;8829;47.932;7.810;2023-06-26T10:33:41;29.30;97.20
17423;DHT22;8829;47.932;7.810;2023-06-26T10:36:17;29.60;97.60
17423;DHT22;8829;47.932;7.810;2023-06-26T10:38:52;29.90;97.60
17423;DHT22;8829;47.932;7.810;2023-06-26T10:41:22;30.00;96.40
17423;DHT22;8829;47.932;7.810;2023-06-26T10:43:50;30.10;96.40
17423;DHT22;8829;47.932;7.810;2023-06-26T10:46:22;30.10;95.70
17423;DHT22;8829;47.932;7.810;2023-06-26T10:48:58;30.00;96.10
17423;DHT22;8829;47.932;7.810;2023-06-26T10:51:26;30.10;95.90
17423;DHT22;8829;47.932;7.810;2023-06-26T10:53:54;30.10;96.90
17423;DHT22;8829;47.932;7.810;2023-06-26T10:56:21;29.90;97.00
17423;DHT22;8829;47.932;7.810;2023-06-26T10:59:14;30.10;96.40
17423;DHT22;8829;47.932;7.810;2023-06-26T11:01:41;30.20;96.40
17423;DHT22;8829;47.932;7.810;2023-06-26T11:04:08;29.90;96.90
17423;DHT22;8829;47.932;7.810;2023-06-26T11:06:38;29.90;96.90
17423;DHT22;8829;47.932;7.810;2023-06-26T11:09:09;29.80;96.30
17423;DHT22;8829;47.932;7.810;2023-06-26T11:11:57;29.70;96.90
17423;DHT22;8829;47.932;7.810;2023-06-26T11:14:33;29.60;97.60
17423;DHT22;8829;47.932;7.810;2023-06-26T11:17:02;29.50;97.00
17423;DHT22;8829;47.932;7.810;2023-06-26T11:19:29;29.50;97.00
17423;DHT22;8829;47.932;7.810;2023-06-26T11:22:01;29.50;96.90
17423;DHT22;8829;47.932;7.810;2023-06-26T11:24:29;29.60;97.10
17423;DHT22;8829;47.932;7.810;2023-06-26T11:27:00;29.60;97.60
17423;DHT22;8829;47.932;7.810;2023-06-26T11:29:29;29.50;97.40
17423;DHT22;8829;47.932;7.810;2023-06-26T11:32:00;29.40;98.00
17423;DHT22;8829;47.932;7.810;2023-06-26T11:34:30;29.20;97.50
17423;DHT22;8829;47.932;7.810;2023-06-26T11:36:59;29.30;98.40
17423;DHT22;8829;47.932;7.810;2023-06-26T11:39:29;29.40;97.60
17423;DHT22;8829;47.932;7.810;2023-06-26T11:41:56;29.40;98.20
17423;DHT22;8829;47.932;7.810;2023-06-26T11:44:23;29.50;97.60
17423;DHT22;8829;47.932;7.810;2023-06-26T11:46:52;29.40;97.30
17423;DHT22;8829;47.932;7.810;2023-06-26T11:49:21;29.40;98.00
17423;DHT22;8829;47.932;7.810;2023-06-26T11:51:48;29.40;97.60
17423;DHT22;8829;47.932;7.810;2023-06-26T11:54:23;29.50;96.70
17423;DHT22;8829;47.932;7.810;2023-06-26T11:56:52;29.50;97.60
17423;DHT22;8829;47.932;7.810;2023-06-26T11:59:19;29.70;97.00
17423;DHT22;8829;47.932;7.810;2023-06-26T12:01:46;29.90;97.10
17423;DHT22;8829;47.932;7.810;2023-06-26T12:04:15;30.10;97.30
17423;DHT22;8829;47.932;7.810;2023-06-26T12:06:46;30.40;97.40
17423;DHT22;8829;47.932;7.810;2023-06-26T12:09:13;30.60;96.70
17423;DHT22;8829;47.932;7.810;2023-06-26T12:11:43;30.80;95.70
17423;DHT22;8829;47.932;7.810;2023-06-26T12:14:11;30.60;96.90
17423;DHT22;8829;47.932;7.810;2023-06-26T12:16:38;30.50;96.70
17423;DHT22;8829;47.932;7.810;2023-06-26T12:19:07;30.50;96.20
17423;DHT22;8829;47.932;7.810;2023-06-26T12:21:48;30.50;97.00
17423;DHT22;8829;47.932;7.810;2023-06-26T12:24:18;30.40;96.60
17423;DHT22;8829;47.932;7.810;2023-06-26T12:26:49;30.40;96.90
17423;DHT22;8829;47.932;7.810;2023-06-26T12:29:18;30.30;97.00
17423;DHT22;8829;47.932;7.810;2023-06-26T12:31:48;30.50;97.30
17423;DHT22;8829;47.932;7.810;2023-06-26T12:34:20;30.60;97.80
17423;DHT22;8829;47.932;7.810;2023-06-26T12:36:48;30.60;96.90
17423;DHT22;8829;47.932;7.810;2023-06-26T12:39:17;30.30;96.90
17423;DHT22;8829;47.932;7.810;2023-06-26T12:41:46;30.20;97.50
17423;DHT22;8829;47.932;7.810;2023-06-26T12:44:17;30.20;97.10
17423;DHT22;8829;47.932;7.810;2023-06-26T12:46:46;30.00;97.70
17423;DHT22;8829;47.932;7.810;2023-06-26T12:49:13;29.80;97.90
17423;DHT22;8829;47.932;7.810;2023-06-26T12:51:40;29.80;97.50
17423;DHT22;8829;47.932;7.810;2023-06-26T12:54:08;29.70;97.80
17423;DHT22;8829;47.932;7.810;2023-06-26T12:56:34;29.80;97.70
17423;DHT22;8829;47.932;7.810;2023-06-26T12:59:02;29.60;98.10
17423;DHT22;8829;47.932;7.810;2023-06-26T13:01:29;29.40;98.60
17423;DHT22;8829;47.932;7.810;2023-06-26T13:03:56;29.20;98.40
17423;DHT22;8829;47.932;7.810;2023-06-26T13:06:22;29.20;97.20
17423;DHT22;8829;47.932;7.810;2023-06-26T13:08:49;29.00;97.30
17423;DHT22;8829;47.932;7.810;2023-06-26T13:11:16;29.00;97.90
17423;DHT22;8829;47.932;7.810;2023-06-26T13:13:43;29.10;96.50
17423;DHT22;8829;47.932;7.810;2023-06-26T13:16:11;29.20;96.90
17423;DHT22;8829;47.932;7.810;2023-06-26T13:18:38;29.40;97.10
17423;DHT22;8829;47.932;7.810;2023-06-26T13:21:04;29.40;96.40
17423;DHT22;8829;47.932;7.810;2023-06-26T13:23:31;29.50;96.70
17423;DHT22;8829;47.932;7.810;2023-06-26T13:25:58;29.20;96.90
17423;DHT22;8829;47.932;7.810;2023-06-26T13:28:24;29.30;96.10
17423;DHT22;8829;47.932;7.810;2023-06-26T13:30:51;29.10;96.80
17423;DHT22;8829;47.932;7.810;2023-06-26T13:33:19;29.10;97.40
17423;DHT22;8829;47.932;7.810;2023-06-26T13:35:46;28.80;96.50
17423;DHT22;8829;47.932;7.810;2023-06-26T13:38:12;28.70;97.70
17423;DHT22;8829;47.932;7.810;2023-06-26T13:40:39;28.80;98.60
17423;DHT22;8829;47.932;7.810;2023-06-26T13:43:06;29.20;97.50
17423;DHT22;8829;47.932;7.810;2023-06-26T13:45:32;29.40;97.50
17423;DHT22;8829;47.932;7.810;2023-06-26T13:47:59;29.60;96.90
17423;DHT22;8829;47.932;7.810;2023-06-26T13:50:29;29.60;95.80
17423;DHT22;8829;47.932;7.810;2023-06-26T13:52:55;29.50;95.60
17423;DHT22;8829;47.932;7.810;2023-06-26T13:55:22;29.00;96.40
17423;DHT22;8829;47.932;7.810;2023-06-26T13:57:49;28.50;97.00
17423;DHT22;8829;47.932;7.810;2023-06-26T14:00:16;28.30;96.00
17423;DHT22;8829;47.932;7.810;2023-06-26T14:02:45;28.00;97.00
17423;DHT22;8829;47.932;7.810;2023-06-26T14:05:12;28.20;97.00
17423;DHT22;8829;47.932;7.810;2023-06-26T14:07:40;28.50;98.10
17423;DHT22;8829;47.932;7.810;2023-06-26T14:10:09;28.40;96.10
17423;DHT22;8829;47.932;7.810;2023-06-26T14:12:36;28.70;96.50
17423;DHT22;8829;47.932;7.810;2023-06-26T14:15:03;28.80;96.90
17423;DHT22;8829;47.932;7.810;2023-06-26T14:17:30;29.00;96.90
17423;DHT22;8829;47.932;7.810;2023-06-26T14:19:57;29.00;97.20
17423;DHT22;8829;47.932;7.810;2023-06-26T14:22:24;29.10;96.00
17423;DHT22;8829;47.932;7.810;2023-06-26T14:24:53;29.20;95.70
17423;DHT22;8829;47.932;7.810;2023-06-26T14:27:20;28.90;95.20
17423;DHT22;8829;47.932;7.810;2023-06-26T14:29:46;28.80;95.10
17423;DHT22;8829;47.932;7.810;2023-06-26T14:32:13;28.90;94.40
17423;DHT22;8829;47.932;7.810;2023-06-26T14:34:40;29.00;93.80
17423;DHT22;8829;47.932;7.810;2023-06-26T14:37:06;29.00;93.50
17423;DHT22;8829;47.932;7.810;2023-06-26T14:39:33;29.10;93.80
17423;DHT22;8829;47.932;7.810;2023-06-26T14:42:01;29.20;94.20
17423;DHT22;8829;47.932;7.810;2023-06-26T14:44:28;29.40;92.80
17423;DHT22;8829;47.932;7.810;2023-06-26T14:46:54;29.30;92.40
17423;DHT22;8829;47.932;7.810;2023-06-26T14:49:21;29.30;91.80
17423;DHT22;8829;47.932;7.810;2023-06-26T14:51:48;29.30;92.80
17423;DHT22;8829;47.932;7.810;2023-06-26T14:54:14;29.30;94.50
17423;DHT22;8829;47.932;7.810;2023-06-26T14:56:41;29.40;93.10
17423;DHT22;8829;47.932;7.810;2023-06-26T14:59:11;29.50;92.60
17423;DHT22;8829;47.932;7.810;2023-06-26T15:01:38;29.50;91.80
17423;DHT22;8829;47.932;7.810;2023-06-26T15:04:05;29.40;92.50
17423;DHT22;8829;47.932;7.810;2023-06-26T15:06:31;29.50;91.90
17423;DHT22;8829;47.932;7.810;2023-06-26T15:08:59;29.40;91.10
17423;DHT22;8829;47.932;7.810;2023-06-26T15:11:26;29.10;92.30
17423;DHT22;8829;47.932;7.810;2023-06-26T15:13:52;29.20;92.10
17423;DHT22;8829;47.932;7.810;2023-06-26T15:16:20;29.30;91.30
17423;DHT22;8829;47.932;7.810;2023-06-26T15:18:47;29.60;91.40
17423;DHT22;8829;47.932;7.810;2023-06-26T15:21:14;29.50;90.60
17423;DHT22;8829;47.932;7.810;2023-06-26T15:23:41;29.50;91.40
17423;DHT22;8829;47.932;7.810;2023-06-26T15:26:08;29.40;90.60
17423;DHT22;8829;47.932;7.810;2023-06-26T15:28:34;29.40;90.80
17423;DHT22;8829;47.932;7.810;2023-06-26T15:31:01;29.30;90.20
17423;DHT22;8829;47.932;7.810;2023-06-26T15:33:29;29.20;90.10
17423;DHT22;8829;47.932;7.810;2023-06-26T15:35:56;29.00;89.50
17423;DHT22;8829;47.932;7.810;2023-06-26T15:38:22;28.60;90.40
17423;DHT22;8829;47.932;7.810;2023-06-26T15:40:49;28.40;90.10
17423;DHT22;8829;47.932;7.810;2023-06-26T15:43:16;28.30;90.60
17423;DHT22;8829;47.932;7.810;2023-06-26T15:45:42;28.30;90.50
17423;DHT22;8829;47.932;7.810;2023-06-26T15:48:09;28.20;90.90